sensor_id;sensor_type;location;lat;lon;timestamp;temperature;humidity
74364;DHT22;62797;49.740;10.154;2023-02-08T00:00:17;-4.90;61.00
74364;DHT22;62797;49.740;10.154;2023-02-08T00:02:42;-4.90;59.60
74364;DHT22;62797;49.740;10.154;2023-02-08T00:05:08;-4.90;60.60
74364;DHT22;62797;49.740;10.154;2023-02-08T00:07:33;-4.90;59.20
74364;DHT22;62797;49.740;10.154;2023-02-08T00:09:59;-5.00;59.30
74364;DHT22;62797;49.740;10.154;2023-02-08T00:12:24;-5.00;58.40
74364;DHT22;62797;49.740;10.154;2023-02-08T00:14:50;-5.10;58.00
74364;DHT22;62797;49.740;10.154;2023-02-08T00:17:15;-5.20;58.00
74364;DHT22;62797;49.740;10.154;2023-02-08T00:19:41;-5.20;59.70
74364;DHT22;62797;49.740;10.154;2023-02-08T00:22:06;-5.20;60.20
74364;DHT22;62797;49.740;10.154;2023-02-08T00:24:32;-5.20;61.00
74364;DHT22;62797;49.740;10.154;2023-02-08T00:26:57;-5.20;60.50
74364;DHT22;62797;49.740;10.154;2023-02-08T00:29:23;-5.20;61.20
74364;DHT22;62797;49.740;10.154;2023-02-08T00:31:49;-5.20;59.80
74364;DHT22;62797;49.740;10.154;2023-02-08T00:34:14;-5.20;59.50
74364;DHT22;62797;49.740;10.154;2023-02-08T00:36:40;-5.20;60.40
74364;DHT22;62797;49.740;10.154;2023-02-08T00:39:05;-5.20;59.60
74364;DHT22;62797;49.740;10.154;2023-02-08T00:41:31;-5.20;59.30
74364;DHT22;62797;49.740;10.154;2023-02-08T00:43:56;-5.20;57.40
74364;DHT22;62797;49.740;10.154;2023-02-08T00:46:22;-5.30;58.80
74364;DHT22;62797;49.740;10.154;2023-02-08T00:48:47;-5.30;58.10
74364;DHT22;62797;49.740;10.154;2023-02-08T00:51:13;-5.40;59.20
74364;DHT22;62797;49.740;10.154;2023-02-08T00:53:43;-5.40;60.50
74364;DHT22;62797;49.740;10.154;2023-02-08T00:56:10;-5.30;60.60
74364;DHT22;62797;49.740;10.154;2023-02-08T00:58:36;-5.30;60.30
74364;DHT22;62797;49.740;10.154;2023-02-08T01:01:02;-5.30;60.90
74364;DHT22;62797;49.740;10.154;2023-02-08T01:03:28;-5.30;61.00
74364;DHT22;62797;49.740;10.154;2023-02-08T01:05:55;-5.30;58.80
74364;DHT22;62797;49.740;10.154;2023-02-08T01:08:24;-5.30;61.40
74364;DHT22;62797;49.740;10.154;2023-02-08T01:10:49;-5.30;60.10
74364;DHT22;62797;49.740;10.154;2023-02-08T01:13:15;-5.40;58.80
74364;DHT22;62797;49.740;10.154;2023-02-08T01:15:41;-5.40;58.20
74364;DHT22;62797;49.740;10.154;2023-02-08T01:18:07;-5.40;58.90
74364;DHT22;62797;49.740;10.154;2023-02-08T01:20:34;-5.40;58.50
74364;DHT22;62797;49.740;10.154;2023-02-08T01:23:00;-5.50;58.50
74364;DHT22;62797;49.740;10.154;2023-02-08T01:25:26;-5.50;60.50
74364;DHT22;62797;49.740;10.154;2023-02-08T01:27:52;-5.50;59.60
74364;DHT22;62797;49.740;10.154;2023-02-08T01:30:19;-5.50;58.20
74364;DHT22;62797;49.740;10.154;2023-02-08T01:32:45;-5.60;57.80
74364;DHT22;62797;49.740;10.154;2023-02-08T01:35:10;-5.60;59.40
74364;DHT22;62797;49.740;10.154;2023-02-08T01:37:36;-5.60;57.90
74364;DHT22;62797;49.740;10.154;2023-02-08T01:40:02;-5.70;58.20
74364;DHT22;62797;49.740;10.154;2023-02-08T01:42:27;-5.70;58.00
74364;DHT22;62797;49.740;10.154;2023-02-08T01:47:42;-5.70;60.30
74364;DHT22;62797;49.740;10.154;2023-02-08T01:50:08;-5.70;59.90
74364;DHT22;62797;49.740;10.154;2023-02-08T01:52:34;-5.70;58.50
74364;DHT22;62797;49.740;10.154;2023-02-08T01:55:41;-5.70;60.20
74364;DHT22;62797;49.740;10.154;2023-02-08T01:58:09;-5.70;59.70
74364;DHT22;62797;49.740;10.154;2023-02-08T02:00:36;-5.80;59.70
74364;DHT22;62797;49.740;10.154;2023-02-08T02:03:03;-5.70;58.80
74364;DHT22;62797;49.740;10.154;2023-02-08T02:05:43;-5.80;57.10
74364;DHT22;62797;49.740;10.154;2023-02-08T02:08:10;-5.90;58.10
74364;DHT22;62797;49.740;10.154;2023-02-08T02:10:37;-5.90;59.70
74364;DHT22;62797;49.740;10.154;2023-02-08T02:13:06;-5.90;58.70
74364;DHT22;62797;49.740;10.154;2023-02-08T02:15:33;-5.90;58.20
74364;DHT22;62797;49.740;10.154;2023-02-08T02:18:00;-6.00;58.60
74364;DHT22;62797;49.740;10.154;2023-02-08T02:26:26;-6.10;59.70
74364;DHT22;62797;49.740;10.154;2023-02-08T02:35:02;-6.10;60.60
74364;DHT22;62797;49.740;10.154;2023-02-08T02:38:03;-6.10;60.40
74364;DHT22;62797;49.740;10.154;2023-02-08T02:43:32;-6.10;59.40
74364;DHT22;62797;49.740;10.154;2023-02-08T02:46:21;-6.10;59.00
74364;DHT22;62797;49.740;10.154;2023-02-08T02:56:54;-6.10;59.00
74364;DHT22;62797;49.740;10.154;2023-02-08T02:59:20;-6.20;57.90
74364;DHT22;62797;49.740;10.154;2023-02-08T03:01:46;-6.20;59.50
74364;DHT22;62797;49.740;10.154;2023-02-08T03:04:14;-6.20;59.30
74364;DHT22;62797;49.740;10.154;2023-02-08T03:07:09;-6.20;58.70
74364;DHT22;62797;49.740;10.154;2023-02-08T03:10:04;-6.20;59.20
74364;DHT22;62797;49.740;10.154;2023-02-08T03:12:50;-6.30;58.50
74364;DHT22;62797;49.740;10.154;2023-02-08T03:20:24;-6.20;57.90
74364;DHT22;62797;49.740;10.154;2023-02-08T03:25:52;-6.40;59.00
74364;DHT22;62797;49.740;10.154;2023-02-08T03:28:57;-6.40;59.00
74364;DHT22;62797;49.740;10.154;2023-02-08T03:31:50;-6.40;59.00
74364;DHT22;62797;49.740;10.154;2023-02-08T03:36:53;-6.30;58.60
74364;DHT22;62797;49.740;10.154;2023-02-08T03:39:23;-6.30;59.50
74364;DHT22;62797;49.740;10.154;2023-02-08T03:41:52;-6.30;59.50
74364;DHT22;62797;49.740;10.154;2023-02-08T03:44:28;-6.30;59.00
74364;DHT22;62797;49.740;10.154;2023-02-08T03:46:58;-6.30;57.70
74364;DHT22;62797;49.740;10.154;2023-02-08T03:49:31;-6.30;60.20
74364;DHT22;62797;49.740;10.154;2023-02-08T03:52:01;-6.40;57.90
74364;DHT22;62797;49.740;10.154;2023-02-08T03:54:30;-6.40;58.90
74364;DHT22;62797;49.740;10.154;2023-02-08T03:57:15;-6.50;57.70
74364;DHT22;62797;49.740;10.154;2023-02-08T03:59:47;-6.40;59.40
74364;DHT22;62797;49.740;10.154;2023-02-08T04:02:18;-6.40;59.10
74364;DHT22;62797;49.740;10.154;2023-02-08T04:04:46;-6.40;59.00
74364;DHT22;62797;49.740;10.154;2023-02-08T04:07:13;-6.40;57.90
74364;DHT22;62797;49.740;10.154;2023-02-08T04:09:40;-6.40;57.30
74364;DHT22;62797;49.740;10.154;2023-02-08T04:12:06;-6.50;57.30
74364;DHT22;62797;49.740;10.154;2023-02-08T04:14:31;-6.50;60.10
74364;DHT22;62797;49.740;10.154;2023-02-08T04:16:57;-6.50;60.20
74364;DHT22;62797;49.740;10.154;2023-02-08T04:19:22;-6.50;59.00
74364;DHT22;62797;49.740;10.154;2023-02-08T04:21:48;-6.50;59.80
74364;DHT22;62797;49.740;10.154;2023-02-08T04:24:13;-6.50;58.20
74364;DHT22;62797;49.740;10.154;2023-02-08T04:26:39;-6.50;58.80
74364;DHT22;62797;49.740;10.154;2023-02-08T04:29:05;-6.50;58.90
74364;DHT22;62797;49.740;10.154;2023-02-08T04:31:30;-6.50;57.30
74364;DHT22;62797;49.740;10.154;2023-02-08T04:33:56;-6.50;58.60
74364;DHT22;62797;49.740;10.154;2023-02-08T04:36:21;-6.50;59.20
74364;DHT22;62797;49.740;10.154;2023-02-08T04:38:47;-6.50;58.60
74364;DHT22;62797;49.740;10.154;2023-02-08T04:41:12;-6.50;59.60
74364;DHT22;62797;49.740;10.154;2023-02-08T04:43:38;-6.50;60.10
74364;DHT22;62797;49.740;10.154;2023-02-08T04:46:03;-6.50;59.70
74364;DHT22;62797;49.740;10.154;2023-02-08T04:48:29;-6.60;60.00
74364;DHT22;62797;49.740;10.154;2023-02-08T04:50:55;-6.50;60.60
74364;DHT22;62797;49.740;10.154;2023-02-08T04:53:22;-6.40;59.00
74364;DHT22;62797;49.740;10.154;2023-02-08T04:55:47;-6.50;59.20
74364;DHT22;62797;49.740;10.154;2023-02-08T04:58:13;-6.50;59.40
74364;DHT22;62797;49.740;10.154;2023-02-08T05:00:38;-6.50;59.40
74364;DHT22;62797;49.740;10.154;2023-02-08T05:03:04;-6.50;58.90
74364;DHT22;62797;49.740;10.154;2023-02-08T05:05:30;-6.50;58.60
74364;DHT22;62797;49.740;10.154;2023-02-08T05:07:56;-6.60;56.90
74364;DHT22;62797;49.740;10.154;2023-02-08T05:10:21;-6.60;56.80
74364;DHT22;62797;49.740;10.154;2023-02-08T05:12:47;-6.60;56.60
74364;DHT22;62797;49.740;10.154;2023-02-08T05:15:12;-6.60;56.30
74364;DHT22;62797;49.740;10.154;2023-02-08T05:17:38;-6.60;58.10
74364;DHT22;62797;49.740;10.154;2023-02-08T05:20:05;-6.60;58.70
74364;DHT22;62797;49.740;10.154;2023-02-08T05:22:32;-6.60;58.00
74364;DHT22;62797;49.740;10.154;2023-02-08T05:24:57;-6.70;57.60
74364;DHT22;62797;49.740;10.154;2023-02-08T05:27:23;-6.70;57.10
74364;DHT22;62797;49.740;10.154;2023-02-08T05:29:48;-6.70;56.10
74364;DHT22;62797;49.740;10.154;2023-02-08T05:32:14;-6.80;56.40
74364;DHT22;62797;49.740;10.154;2023-02-08T05:34:40;-6.80;59.00
74364;DHT22;62797;49.740;10.154;2023-02-08T05:37:05;-6.90;58.10
74364;DHT22;62797;49.740;10.154;2023-02-08T05:39:31;-6.90;58.20
74364;DHT22;62797;49.740;10.154;2023-02-08T05:41:57;-7.00;59.00
74364;DHT22;62797;49.740;10.154;2023-02-08T05:44:22;-7.10;59.50
74364;DHT22;62797;49.740;10.154;2023-02-08T05:46:48;-7.00;60.60
74364;DHT22;62797;49.740;10.154;2023-02-08T05:49:13;-7.00;59.30
74364;DHT22;62797;49.740;10.154;2023-02-08T05:51:39;-6.90;57.90
74364;DHT22;62797;49.740;10.154;2023-02-08T05:54:04;-7.00;58.10
74364;DHT22;62797;49.740;10.154;2023-02-08T05:56:30;-7.00;59.40
74364;DHT22;62797;49.740;10.154;2023-02-08T05:58:56;-7.00;57.70
74364;DHT22;62797;49.740;10.154;2023-02-08T06:01:24;-7.00;57.20
74364;DHT22;62797;49.740;10.154;2023-02-08T06:03:49;-7.00;59.20
74364;DHT22;62797;49.740;10.154;2023-02-08T06:06:14;-7.00;57.60
74364;DHT22;62797;49.740;10.154;2023-02-08T06:08:40;-7.00;58.80
74364;DHT22;62797;49.740;10.154;2023-02-08T06:11:06;-7.00;57.60
74364;DHT22;62797;49.740;10.154;2023-02-08T06:13:31;-7.00;59.30
74364;DHT22;62797;49.740;10.154;2023-02-08T06:15:57;-7.00;59.00
74364;DHT22;62797;49.740;10.154;2023-02-08T06:18:22;-7.00;58.70
74364;DHT22;62797;49.740;10.154;2023-02-08T06:20:50;-7.00;58.10
74364;DHT22;62797;49.740;10.154;2023-02-08T06:23:16;-7.00;57.30
74364;DHT22;62797;49.740;10.154;2023-02-08T06:25:42;-7.00;57.00
74364;DHT22;62797;49.740;10.154;2023-02-08T06:28:07;-7.00;58.70
74364;DHT22;62797;49.740;10.154;2023-02-08T06:30:35;-7.00;59.30
74364;DHT22;62797;49.740;10.154;2023-02-08T06:33:01;-7.00;59.50
74364;DHT22;62797;49.740;10.154;2023-02-08T06:35:26;-7.00;57.20
74364;DHT22;62797;49.740;10.154;2023-02-08T06:37:52;-7.00;56.40
74364;DHT22;62797;49.740;10.154;2023-02-08T06:40:18;-7.10;57.00
74364;DHT22;62797;49.740;10.154;2023-02-08T06:42:46;-7.10;58.60
74364;DHT22;62797;49.740;10.154;2023-02-08T06:45:11;-7.00;58.50
74364;DHT22;62797;49.740;10.154;2023-02-08T06:47:37;-7.00;57.80
74364;DHT22;62797;49.740;10.154;2023-02-08T06:50:02;-7.00;57.80
74364;DHT22;62797;49.740;10.154;2023-02-08T06:52:28;-7.00;57.80
74364;DHT22;62797;49.740;10.154;2023-02-08T06:54:54;-7.00;57.80
74364;DHT22;62797;49.740;10.154;2023-02-08T06:57:19;-7.00;57.20
74364;DHT22;62797;49.740;10.154;2023-02-08T06:59:45;-7.00;56.80
74364;DHT22;62797;49.740;10.154;2023-02-08T07:02:16;-7.10;57.60
74364;DHT22;62797;49.740;10.154;2023-02-08T07:04:42;-7.00;58.20
74364;DHT22;62797;49.740;10.154;2023-02-08T07:07:08;-7.00;58.30
74364;DHT22;62797;49.740;10.154;2023-02-08T07:09:34;-7.00;58.60
74364;DHT22;62797;49.740;10.154;2023-02-08T07:12:00;-6.90;58.90
74364;DHT22;62797;49.740;10.154;2023-02-08T07:14:33;-6.90;58.50
74364;DHT22;62797;49.740;10.154;2023-02-08T07:17:00;-6.80;57.10
74364;DHT22;62797;49.740;10.154;2023-02-08T07:19:26;-6.80;56.40
74364;DHT22;62797;49.740;10.154;2023-02-08T07:21:52;-6.90;56.60
74364;DHT22;62797;49.740;10.154;2023-02-08T07:24:17;-6.80;57.80
74364;DHT22;62797;49.740;10.154;2023-02-08T07:26:43;-6.80;58.00
74364;DHT22;62797;49.740;10.154;2023-02-08T07:29:09;-6.70;57.70
74364;DHT22;62797;49.740;10.154;2023-02-08T07:31:34;-6.70;58.20
74364;DHT22;62797;49.740;10.154;2023-02-08T07:34:00;-6.70;57.30
74364;DHT22;62797;49.740;10.154;2023-02-08T07:36:25;-6.70;57.60
74364;DHT22;62797;49.740;10.154;2023-02-08T07:38:51;-6.60;57.10
74364;DHT22;62797;49.740;10.154;2023-02-08T07:41:16;-6.60;58.60
74364;DHT22;62797;49.740;10.154;2023-02-08T07:43:42;-6.60;59.40
74364;DHT22;62797;49.740;10.154;2023-02-08T07:46:09;-6.50;59.00
74364;DHT22;62797;49.740;10.154;2023-02-08T07:48:35;-6.40;59.70
74364;DHT22;62797;49.740;10.154;2023-02-08T07:51:00;-6.30;58.60
74364;DHT22;62797;49.740;10.154;2023-02-08T07:53:27;-6.30;58.00
74364;DHT22;62797;49.740;10.154;2023-02-08T07:55:52;-6.20;57.80
74364;DHT22;62797;49.740;10.154;2023-02-08T07:58:18;-6.20;58.10
74364;DHT22;62797;49.740;10.154;2023-02-08T08:00:43;-6.10;58.20
74364;DHT22;62797;49.740;10.154;2023-02-08T08:03:09;-6.00;58.70
74364;DHT22;62797;49.740;10.154;2023-02-08T08:05:34;-6.00;58.90
74364;DHT22;62797;49.740;10.154;2023-02-08T08:08:00;-5.90;58.90
74364;DHT22;62797;49.740;10.154;2023-02-08T08:10:26;-5.80;59.00
74364;DHT22;62797;49.740;10.154;2023-02-08T08:12:51;-5.70;61.20
74364;DHT22;62797;49.740;10.154;2023-02-08T08:15:17;-5.60;61.00
74364;DHT22;62797;49.740;10.154;2023-02-08T08:17:42;-5.40;60.00
74364;DHT22;62797;49.740;10.154;2023-02-08T08:20:09;-5.20;59.50
74364;DHT22;62797;49.740;10.154;2023-02-08T08:22:35;-5.20;59.70
74364;DHT22;62797;49.740;10.154;2023-02-08T08:25:01;-5.10;59.90
74364;DHT22;62797;49.740;10.154;2023-02-08T08:27:26;-4.90;59.70
74364;DHT22;62797;49.740;10.154;2023-02-08T08:29:52;-4.80;58.30
74364;DHT22;62797;49.740;10.154;2023-02-08T08:32:17;-4.70;57.90
74364;DHT22;62797;49.740;10.154;2023-02-08T08:34:43;-4.60;58.10
74364;DHT22;62797;49.740;10.154;2023-02-08T08:37:08;-4.50;58.70
74364;DHT22;62797;49.740;10.154;2023-02-08T08:39:34;-4.40;57.30
74364;DHT22;62797;49.740;10.154;2023-02-08T08:42:02;-4.20;56.40
74364;DHT22;62797;49.740;10.154;2023-02-08T08:44:30;-4.10;54.30
74364;DHT22;62797;49.740;10.154;2023-02-08T08:46:57;-4.00;52.50
74364;DHT22;62797;49.740;10.154;2023-02-08T08:49:23;-4.00;53.20
74364;DHT22;62797;49.740;10.154;2023-02-08T08:51:49;-3.90;52.30
74364;DHT22;62797;49.740;10.154;2023-02-08T08:54:16;-3.80;52.30
74364;DHT22;62797;49.740;10.154;2023-02-08T08:56:41;-3.60;52.90
74364;DHT22;62797;49.740;10.154;2023-02-08T08:59:07;-3.60;52.60
74364;DHT22;62797;49.740;10.154;2023-02-08T09:01:33;-3.50;53.40
74364;DHT22;62797;49.740;10.154;2023-02-08T09:03:58;-3.40;53.20
74364;DHT22;62797;49.740;10.154;2023-02-08T09:06:24;-3.30;52.70
74364;DHT22;62797;49.740;10.154;2023-02-08T09:08:49;-3.30;52.10
74364;DHT22;62797;49.740;10.154;2023-02-08T09:11:15;-3.20;52.00
74364;DHT22;62797;49.740;10.154;2023-02-08T09:13:41;-3.10;52.10
74364;DHT22;62797;49.740;10.154;2023-02-08T09:16:13;-3.00;51.70
74364;DHT22;62797;49.740;10.154;2023-02-08T09:18:39;-2.90;52.10
74364;DHT22;62797;49.740;10.154;2023-02-08T09:23:31;-2.70;50.60
74364;DHT22;62797;49.740;10.154;2023-02-08T09:25:57;-2.60;50.40
74364;DHT22;62797;49.740;10.154;2023-02-08T09:28:23;-2.50;51.00
74364;DHT22;62797;49.740;10.154;2023-02-08T09:30:48;-2.40;50.80
74364;DHT22;62797;49.740;10.154;2023-02-08T09:33:14;-2.40;50.00
74364;DHT22;62797;49.740;10.154;2023-02-08T09:35:39;-2.20;49.30
74364;DHT22;62797;49.740;10.154;2023-02-08T09:38:05;-2.10;47.60
74364;DHT22;62797;49.740;10.154;2023-02-08T09:40:40;-2.10;46.70
74364;DHT22;62797;49.740;10.154;2023-02-08T09:43:13;-1.90;46.90
74364;DHT22;62797;49.740;10.154;2023-02-08T09:45:59;-1.80;45.10
74364;DHT22;62797;49.740;10.154;2023-02-08T09:48:44;-1.70;46.10
74364;DHT22;62797;49.740;10.154;2023-02-08T09:51:31;-1.70;45.50
74364;DHT22;62797;49.740;10.154;2023-02-08T09:54:18;-1.60;45.80
74364;DHT22;62797;49.740;10.154;2023-02-08T09:56:46;-1.50;44.70
74364;DHT22;62797;49.740;10.154;2023-02-08T09:59:16;-1.40;44.20
74364;DHT22;62797;49.740;10.154;2023-02-08T10:01:44;-1.30;41.10
74364;DHT22;62797;49.740;10.154;2023-02-08T10:04:35;-1.20;42.80
74364;DHT22;62797;49.740;10.154;2023-02-08T10:07:02;-1.00;42.30
74364;DHT22;62797;49.740;10.154;2023-02-08T10:09:27;-1.00;40.10
74364;DHT22;62797;49.740;10.154;2023-02-08T10:12:12;-1.00;39.70
74364;DHT22;62797;49.740;10.154;2023-02-08T10:17:23;-0.80;39.10
74364;DHT22;62797;49.740;10.154;2023-02-08T10:20:00;-0.70;38.40
74364;DHT22;62797;49.740;10.154;2023-02-08T10:22:37;-0.60;38.60
74364;DHT22;62797;49.740;10.154;2023-02-08T10:28:15;-0.40;36.20
74364;DHT22;62797;49.740;10.154;2023-02-08T10:31:18;-0.20;36.80
74364;DHT22;62797;49.740;10.154;2023-02-08T10:33:58;-0.10;34.20
74364;DHT22;62797;49.740;10.154;2023-02-08T10:36:30;-0.10;34.40
74364;DHT22;62797;49.740;10.154;2023-02-08T10:38:57;0.10;34.00
74364;DHT22;62797;49.740;10.154;2023-02-08T10:41:28;0.10;33.50
74364;DHT22;62797;49.740;10.154;2023-02-08T10:44:15;0.30;34.50
74364;DHT22;62797;49.740;10.154;2023-02-08T10:52:22;0.90;32.20
74364;DHT22;62797;49.740;10.154;2023-02-08T10:54:48;1.20;30.30
74364;DHT22;62797;49.740;10.154;2023-02-08T10:57:17;1.30;30.60
74364;DHT22;62797;49.740;10.154;2023-02-08T10:59:53;1.60;29.10
74364;DHT22;62797;49.740;10.154;2023-02-08T11:02:22;1.80;29.30
74364;DHT22;62797;49.740;10.154;2023-02-08T11:08:12;2.00;27.80
74364;DHT22;62797;49.740;10.154;2023-02-08T11:10:43;2.20;27.10
74364;DHT22;62797;49.740;10.154;2023-02-08T11:15:43;2.70;27.60
74364;DHT22;62797;49.740;10.154;2023-02-08T11:18:25;3.00;25.30
74364;DHT22;62797;49.740;10.154;2023-02-08T11:20:55;3.10;24.90
74364;DHT22;62797;49.740;10.154;2023-02-08T11:23:24;3.40;24.60
74364;DHT22;62797;49.740;10.154;2023-02-08T11:25:52;3.70;24.50
74364;DHT22;62797;49.740;10.154;2023-02-08T11:28:31;3.90;23.50
74364;DHT22;62797;49.740;10.154;2023-02-08T11:31:02;4.10;23.60
74364;DHT22;62797;49.740;10.154;2023-02-08T11:33:34;3.90;23.40
74364;DHT22;62797;49.740;10.154;2023-02-08T11:36:04;4.00;24.00
74364;DHT22;62797;49.740;10.154;2023-02-08T11:38:34;4.30;23.20
74364;DHT22;62797;49.740;10.154;2023-02-08T11:41:03;4.30;22.30
74364;DHT22;62797;49.740;10.154;2023-02-08T11:43:31;4.30;21.30
74364;DHT22;62797;49.740;10.154;2023-02-08T11:45:58;4.30;22.60
74364;DHT22;62797;49.740;10.154;2023-02-08T11:48:39;4.50;21.60
74364;DHT22;62797;49.740;10.154;2023-02-08T11:51:07;4.50;22.10
74364;DHT22;62797;49.740;10.154;2023-02-08T11:53:46;4.80;22.90
74364;DHT22;62797;49.740;10.154;2023-02-08T11:56:16;5.20;20.20
74364;DHT22;62797;49.740;10.154;2023-02-08T12:01:26;5.70;20.00
74364;DHT22;62797;49.740;10.154;2023-02-08T12:03:54;5.70;19.00
74364;DHT22;62797;49.740;10.154;2023-02-08T12:20:41;6.70;19.30
74364;DHT22;62797;49.740;10.154;2023-02-08T12:31:54;7.70;17.00
74364;DHT22;62797;49.740;10.154;2023-02-08T12:49:40;9.30;15.10
74364;DHT22;62797;49.740;10.154;2023-02-08T12:52:16;9.40;14.60
74364;DHT22;62797;49.740;10.154;2023-02-08T12:55:00;9.20;14.70
74364;DHT22;62797;49.740;10.154;2023-02-08T12:57:29;9.50;13.90
74364;DHT22;62797;49.740;10.154;2023-02-08T12:59:59;9.50;13.60
74364;DHT22;62797;49.740;10.154;2023-02-08T13:02:37;9.70;14.20
74364;DHT22;62797;49.740;10.154;2023-02-08T13:05:20;9.70;13.30
74364;DHT22;62797;49.740;10.154;2023-02-08T13:07:47;9.90;14.00
74364;DHT22;62797;49.740;10.154;2023-02-08T13:12:54;10.80;11.70
74364;DHT22;62797;49.740;10.154;2023-02-08T13:15:34;10.70;11.80
74364;DHT22;62797;49.740;10.154;2023-02-08T13:20:46;11.10;12.20
74364;DHT22;62797;49.740;10.154;2023-02-08T13:23:27;11.20;11.80
74364;DHT22;62797;49.740;10.154;2023-02-08T13:26:00;11.10;10.60
74364;DHT22;62797;49.740;10.154;2023-02-08T13:28:27;11.20;11.10
74364;DHT22;62797;49.740;10.154;2023-02-08T13:31:03;11.70;10.70
74364;DHT22;62797;49.740;10.154;2023-02-08T13:36:01;11.70;10.20
74364;DHT22;62797;49.740;10.154;2023-02-08T13:38:32;11.90;10.70
74364;DHT22;62797;49.740;10.154;2023-02-08T13:41:25;12.00;8.70
74364;DHT22;62797;49.740;10.154;2023-02-08T13:44:04;12.10;8.60
74364;DHT22;62797;49.740;10.154;2023-02-08T13:46:44;12.20;9.10
74364;DHT22;62797;49.740;10.154;2023-02-08T13:58:00;12.20;7.60
74364;DHT22;62797;49.740;10.154;2023-02-08T14:00:33;11.90;8.40
74364;DHT22;62797;49.740;10.154;2023-02-08T14:13:53;13.00;7.70
74364;DHT22;62797;49.740;10.154;2023-02-08T14:16:32;12.60;8.80
74364;DHT22;62797;49.740;10.154;2023-02-08T14:19:21;12.80;7.20
74364;DHT22;62797;49.740;10.154;2023-02-08T14:21:48;12.80;5.80
74364;DHT22;62797;49.740;10.154;2023-02-08T14:24:27;12.70;6.60
74364;DHT22;62797;49.740;10.154;2023-02-08T14:27:10;12.80;6.50
74364;DHT22;62797;49.740;10.154;2023-02-08T14:29:40;12.80;6.70
74364;DHT22;62797;49.740;10.154;2023-02-08T14:32:06;12.90;7.70
74364;DHT22;62797;49.740;10.154;2023-02-08T14:34:34;13.00;6.20
74364;DHT22;62797;49.740;10.154;2023-02-08T14:39:35;13.10;5.90
74364;DHT22;62797;49.740;10.154;2023-02-08T14:42:05;13.20;5.80
74364;DHT22;62797;49.740;10.154;2023-02-08T14:50:25;14.10;6.80
74364;DHT22;62797;49.740;10.154;2023-02-08T14:53:17;14.00;4.70
74364;DHT22;62797;49.740;10.154;2023-02-08T14:55:50;13.60;5.20
74364;DHT22;62797;49.740;10.154;2023-02-08T14:58:27;13.60;6.10
74364;DHT22;62797;49.740;10.154;2023-02-08T15:00:55;13.60;4.80
74364;DHT22;62797;49.740;10.154;2023-02-08T15:03:21;13.90;5.00
74364;DHT22;62797;49.740;10.154;2023-02-08T15:06:16;13.60;5.10
74364;DHT22;62797;49.740;10.154;2023-02-08T15:08:53;13.60;4.60
74364;DHT22;62797;49.740;10.154;2023-02-08T15:11:21;13.40;4.60
74364;DHT22;62797;49.740;10.154;2023-02-08T15:13:49;13.20;5.70
74364;DHT22;62797;49.740;10.154;2023-02-08T15:16:16;13.10;6.20
74364;DHT22;62797;49.740;10.154;2023-02-08T15:18:45;13.20;5.70
74364;DHT22;62797;49.740;10.154;2023-02-08T15:21:19;13.20;5.40
74364;DHT22;62797;49.740;10.154;2023-02-08T15:24:00;12.70;5.10
74364;DHT22;62797;49.740;10.154;2023-02-08T15:26:26;12.20;5.50
74364;DHT22;62797;49.740;10.154;2023-02-08T15:28:52;11.50;5.70
74364;DHT22;62797;49.740;10.154;2023-02-08T15:31:22;10.80;6.50
74364;DHT22;62797;49.740;10.154;2023-02-08T15:33:48;10.30;6.80
74364;DHT22;62797;49.740;10.154;2023-02-08T15:36:32;9.90;8.40
74364;DHT22;62797;49.740;10.154;2023-02-08T15:39:03;9.60;7.80
74364;DHT22;62797;49.740;10.154;2023-02-08T15:41:33;9.10;8.40
74364;DHT22;62797;49.740;10.154;2023-02-08T15:44:17;8.90;9.30
74364;DHT22;62797;49.740;10.154;2023-02-08T15:46:45;8.90;9.60
74364;DHT22;62797;49.740;10.154;2023-02-08T15:49:19;8.70;9.60
74364;DHT22;62797;49.740;10.154;2023-02-08T15:51:47;8.50;9.80
74364;DHT22;62797;49.740;10.154;2023-02-08T15:54:22;8.10;11.20
74364;DHT22;62797;49.740;10.154;2023-02-08T15:56:58;7.70;11.60
74364;DHT22;62797;49.740;10.154;2023-02-08T15:59:28;7.30;12.90
74364;DHT22;62797;49.740;10.154;2023-02-08T16:01:56;7.10;13.70
74364;DHT22;62797;49.740;10.154;2023-02-08T16:04:23;6.60;14.00
74364;DHT22;62797;49.740;10.154;2023-02-08T16:06:52;6.20;15.40
74364;DHT22;62797;49.740;10.154;2023-02-08T16:09:21;5.70;15.60
74364;DHT22;62797;49.740;10.154;2023-02-08T16:11:50;5.20;17.00
74364;DHT22;62797;49.740;10.154;2023-02-08T16:14:18;4.80;18.40
74364;DHT22;62797;49.740;10.154;2023-02-08T16:16:53;4.40;18.10
74364;DHT22;62797;49.740;10.154;2023-02-08T16:21:45;3.60;20.90
74364;DHT22;62797;49.740;10.154;2023-02-08T16:27:01;3.00;21.50
74364;DHT22;62797;49.740;10.154;2023-02-08T16:29:38;2.70;22.40
74364;DHT22;62797;49.740;10.154;2023-02-08T16:32:19;2.50;22.30
74364;DHT22;62797;49.740;10.154;2023-02-08T16:34:48;2.10;23.10
74364;DHT22;62797;49.740;10.154;2023-02-08T16:37:33;2.00;23.00
74364;DHT22;62797;49.740;10.154;2023-02-08T16:40:06;1.80;24.20
74364;DHT22;62797;49.740;10.154;2023-02-08T16:42:34;1.60;24.40
74364;DHT22;62797;49.740;10.154;2023-02-08T16:47:38;1.20;27.40
74364;DHT22;62797;49.740;10.154;2023-02-08T16:50:06;1.10;26.90
74364;DHT22;62797;49.740;10.154;2023-02-08T16:52:33;1.00;26.70
74364;DHT22;62797;49.740;10.154;2023-02-08T16:54:58;0.90;26.90
74364;DHT22;62797;49.740;10.154;2023-02-08T16:57:41;0.80;27.80
74364;DHT22;62797;49.740;10.154;2023-02-08T17:00:22;0.70;28.50
74364;DHT22;62797;49.740;10.154;2023-02-08T17:02:48;0.60;28.10
74364;DHT22;62797;49.740;10.154;2023-02-08T17:05:15;0.40;29.60
74364;DHT22;62797;49.740;10.154;2023-02-08T17:07:41;0.30;29.50
74364;DHT22;62797;49.740;10.154;2023-02-08T17:10:13;0.20;30.00
74364;DHT22;62797;49.740;10.154;2023-02-08T17:12:40;0.10;31.10
74364;DHT22;62797;49.740;10.154;2023-02-08T17:15:06;0.10;30.70
74364;DHT22;62797;49.740;10.154;2023-02-08T17:17:31;0.00;30.20
74364;DHT22;62797;49.740;10.154;2023-02-08T17:19:57;-0.10;32.70
74364;DHT22;62797;49.740;10.154;2023-02-08T17:22:22;-0.20;32.10
74364;DHT22;62797;49.740;10.154;2023-02-08T17:24:48;-0.20;31.80
74364;DHT22;62797;49.740;10.154;2023-02-08T17:27:13;-0.20;29.30
74364;DHT22;62797;49.740;10.154;2023-02-08T17:29:39;-0.20;31.20
74364;DHT22;62797;49.740;10.154;2023-02-08T17:32:05;-0.20;30.00
74364;DHT22;62797;49.740;10.154;2023-02-08T17:34:31;-0.20;31.70
74364;DHT22;62797;49.740;10.154;2023-02-08T17:36:57;-0.30;31.50
74364;DHT22;62797;49.740;10.154;2023-02-08T17:39:22;-0.30;31.90
74364;DHT22;62797;49.740;10.154;2023-02-08T17:41:48;-0.40;31.40
74364;DHT22;62797;49.740;10.154;2023-02-08T17:44:13;-0.50;32.10
74364;DHT22;62797;49.740;10.154;2023-02-08T17:46:39;-0.50;31.50
74364;DHT22;62797;49.740;10.154;2023-02-08T17:49:05;-0.50;31.40
74364;DHT22;62797;49.740;10.154;2023-02-08T17:51:31;-0.60;31.80
74364;DHT22;62797;49.740;10.154;2023-02-08T17:53:57;-0.60;32.30